Time;durP1;ratioP1;P1;durP2;ratioP2;P2;SDS_P1;SDS_P2;PMS_P1;PMS_P2;Temp;Humidity;BMP_temperature;BMP_pressure;BME280_temperature;BME280_humidity;BME280_pressure;Samples;Min_cycle;Max_cycle;Signal;HPM_P1;HPM_P2
2022/06/23 00:00:26;;;;;;;5.93;4.18;;;13.90;99.90;;;;;;5083432;28;20532;-68
2022/06/23 00:02:53;;;;;;;6.05;4.05;;;13.90;99.90;;;;;;5087038;28;20056;-66
2022/06/23 00:05:23;;;;;;;4.80;4.30;;;13.90;99.90;;;;;;5086124;28;20053;-67
2022/06/23 00:07:54;;;;;;;6.25;4.13;;;13.80;99.90;;;;;;5073686;28;20048;-67
2022/06/23 00:10:19;;;;;;;6.00;4.28;;;13.80;99.90;;;;;;5080634;28;20124;-67
2022/06/23 00:12:46;;;;;;;7.15;4.60;;;13.80;99.90;;;;;;5073999;28;20139;-67
2022/06/23 00:15:19;;;;;;;5.55;4.80;;;13.70;99.90;;;;;;5073602;28;20067;-68
2022/06/23 00:18:06;;;;;;;6.30;4.70;;;13.70;99.90;;;;;;5076512;28;20052;-67
2022/06/23 00:20:49;;;;;;;6.57;4.90;;;13.70;99.90;;;;;;5090600;28;20532;-66
2022/06/23 00:23:35;;;;;;;5.93;5.00;;;13.70;99.90;;;;;;5083380;28;20048;-67
2022/06/23 00:26:15;;;;;;;6.07;4.85;;;13.60;99.90;;;;;;5053564;28;20064;-66
2022/06/23 00:28:45;;;;;;;5.70;4.50;;;13.60;99.90;;;;;;5089663;28;20395;-67
2022/06/23 00:31:41;;;;;;;6.07;4.63;;;13.60;99.90;;;;;;5091194;28;20135;-67
2022/06/23 00:34:27;;;;;;;5.70;4.43;;;13.60;99.90;;;;;;5089793;28;20131;-66
2022/06/23 00:36:59;;;;;;;6.13;5.07;;;13.60;99.90;;;;;;5093344;28;20108;-67
2022/06/23 00:39:40;;;;;;;6.57;5.00;;;13.50;99.90;;;;;;5093452;28;20105;-67
2022/06/23 00:42:20;;;;;;;6.15;4.88;;;13.50;99.90;;;;;;5093022;28;20054;-66
2022/06/23 00:45:11;;;;;;;5.40;4.85;;;13.50;99.90;;;;;;5086332;28;20156;-67
2022/06/23 00:47:55;;;;;;;6.47;5.20;;;13.50;99.90;;;;;;5074286;28;20105;-68
2022/06/23 00:50:45;;;;;;;6.60;4.63;;;13.50;99.90;;;;;;5091797;28;20056;-67
2022/06/23 00:53:11;;;;;;;6.50;5.07;;;13.50;99.90;;;;;;5080583;28;20078;-66
2022/06/23 00:55:59;;;;;;;8.15;5.82;;;13.50;99.90;;;;;;5092163;28;20088;-66
2022/06/23 00:58:30;;;;;;;6.07;5.13;;;13.50;99.90;;;;;;5083929;28;20060;-67
2022/06/23 01:01:24;;;;;;;6.22;4.97;;;13.40;99.90;;;;;;5084572;28;20062;-67
2022/06/23 01:03:59;;;;;;;7.20;5.00;;;13.40;99.90;;;;;;5066441;28;20080;-66
2022/06/23 01:06:33;;;;;;;6.78;5.20;;;13.40;99.90;;;;;;5093217;28;20091;-66
2022/06/23 01:09:25;;;;;;;11.77;5.25;;;13.30;99.90;;;;;;5108367;28;20066;-68
2022/06/23 01:12:06;;;;;;;5.93;5.25;;;13.30;99.90;;;;;;5091785;28;20074;-67
2022/06/23 01:14:47;;;;;;;6.95;5.10;;;13.40;99.90;;;;;;5092850;28;20091;-68
2022/06/23 01:17:20;;;;;;;6.55;5.70;;;13.40;99.90;;;;;;5091453;28;20078;-66
2022/06/23 01:20:24;;;;;;;6.20;5.60;;;13.40;99.90;;;;;;5082095;28;20058;-68
2022/06/23 01:22:50;;;;;;;6.00;5.28;;;13.30;99.90;;;;;;5048268;28;20056;-66
2022/06/23 01:25:33;;;;;;;6.63;5.93;;;13.30;99.90;;;;;;5053218;28;20382;-67
2022/06/23 01:28:21;;;;;;;8.23;5.97;;;13.30;99.90;;;;;;5110193;28;20187;-68
2022/06/23 01:31:08;;;;;;;8.73;6.22;;;13.30;99.90;;;;;;5091531;28;20044;-68
2022/06/23 01:33:52;;;;;;;7.95;5.93;;;13.30;99.90;;;;;;5089504;28;20500;-66
2022/06/23 01:36:35;;;;;;;7.15;6.45;;;13.30;99.90;;;;;;5057868;28;20098;-67
2022/06/23 01:39:03;;;;;;;6.47;5.70;;;13.20;99.90;;;;;;5058754;28;20044;-68
2022/06/23 01:41:41;;;;;;;7.07;6.38;;;13.20;99.90;;;;;;5076289;28;20049;-68
2022/06/23 01:44:13;;;;;;;7.10;5.97;;;13.20;99.90;;;;;;5075433;28;20390;-67
2022/06/23 01:46:41;;;;;;;7.03;6.32;;;13.10;99.90;;;;;;5090248;28;20056;-67
2022/06/23 01:49:18;;;;;;;7.68;6.38;;;13.10;99.90;;;;;;5095608;28;20097;-66
2022/06/23 01:51:52;;;;;;;8.40;6.32;;;13.00;99.90;;;;;;5116068;27;20082;-66
2022/06/23 01:54:20;;;;;;;8.88;7.03;;;13.00;99.90;;;;;;5076264;28;20040;-66
2022/06/23 01:56:57;;;;;;;7.90;7.03;;;13.00;99.90;;;;;;5075802;28;20045;-68
2022/06/23 01:59:35;;;;;;;7.07;6.35;;;12.90;99.90;;;;;;5094248;28;20090;-65
2022/06/23 02:02:10;;;;;;;8.88;7.20;;;12.90;99.90;;;;;;5093564;28;20048;-66
2022/06/23 02:05:15;;;;;;;8.65;7.32;;;12.90;99.90;;;;;;5094924;28;20052;-68
2022/06/23 02:07:47;;;;;;;9.65;7.28;;;12.80;99.90;;;;;;5076121;28;20561;-67
2022/06/23 02:10:39;;;;;;;9.30;7.30;;;12.80;99.90;;;;;;5078282;28;20040;-67
2022/06/23 02:13:26;;;;;;;7.57;6.85;;;12.80;99.90;;;;;;5095854;28;20093;-66
2022/06/23 02:16:12;;;;;;;8.48;7.20;;;13.00;99.90;;;;;;5070989;28;20558;-67
2022/06/23 02:19:21;;;;;;;8.48;7.18;;;12.80;99.90;;;;;;5053551;28;20049;-66
2022/06/23 02:22:21;;;;;;;9.55;7.10;;;12.80;99.90;;;;;;5059521;28;20089;-66
2022/06/23 02:24:55;;;;;;;8.68;7.28;;;12.80;99.90;;;;;;5082069;28;20051;-67
2022/06/23 02:27:39;;;;;;;9.63;7.60;;;12.80;99.90;;;;;;5073661;28;20040;-68
2022/06/23 02:30:30;;;;;;;9.55;8.05;;;12.80;99.90;;;;;;5092150;28;20040;-68
2022/06/23 02:33:12;;;;;;;8.77;7.88;;;12.80;99.90;;;;;;5076286;28;20087;-67
2022/06/23 02:35:51;;;;;;;9.70;7.63;;;12.70;99.90;;;;;;5094263;28;20055;-67
2022/06/23 02:38:30;;;;;;;9.88;7.95;;;12.70;99.90;;;;;;5094341;28;20052;-67
2022/06/23 02:41:03;;;;;;;9.55;7.80;;;12.70;99.90;;;;;;5064487;28;20484;-65
2022/06/23 02:43:45;;;;;;;12.07;8.02;;;12.70;99.90;;;;;;5063906;28;20088;-65
2022/06/23 02:46:27;;;;;;;11.80;8.35;;;12.70;99.90;;;;;;5072259;28;20103;-65
2022/06/23 02:49:09;;;;;;;9.38;7.82;;;12.70;99.90;;;;;;5095706;28;20213;-65
2022/06/23 02:51:41;;;;;;;11.37;8.13;;;12.70;99.90;;;;;;5093856;28;20044;-67
2022/06/23 02:54:36;;;;;;;10.68;7.82;;;12.60;99.90;;;;;;5089777;28;20380;-66
2022/06/23 02:57:18;;;;;;;10.55;8.35;;;12.60;99.90;;;;;;5076065;28;20059;-66
2022/06/23 02:59:56;;;;;;;10.50;8.68;;;12.60;99.90;;;;;;5094121;28;20056;-68
2022/06/23 03:03:03;;;;;;;10.73;8.52;;;12.60;99.90;;;;;;5074826;28;20076;-67
2022/06/23 03:05:48;;;;;;;11.90;8.23;;;12.60;99.90;;;;;;5073159;28;20395;-66
2022/06/23 03:08:27;;;;;;;9.98;7.93;;;12.60;99.90;;;;;;5092748;28;20357;-67
2022/06/23 03:11:52;;;;;;;12.02;8.15;;;12.60;99.90;;;;;;5093547;28;20051;-66
2022/06/23 03:14:36;;;;;;;11.48;8.40;;;12.60;99.90;;;;;;5094029;28;20521;-67
2022/06/23 03:17:18;;;;;;;12.85;9.43;;;12.60;99.90;;;;;;5093015;28;20079;-67
2022/06/23 03:19:59;;;;;;;11.40;8.55;;;12.60;99.90;;;;;;5092860;28;20074;-67
2022/06/23 03:22:49;;;;;;;11.32;8.60;;;12.50;99.90;;;;;;5094720;28;20494;-66
2022/06/23 03:25:30;;;;;;;12.45;9.02;;;12.60;99.90;;;;;;5092475;28;20058;-67
2022/06/23 03:28:01;;;;;;;11.23;8.15;;;12.50;99.90;;;;;;5120466;27;20048;-66
2022/06/23 03:30:34;;;;;;;10.93;8.70;;;12.50;99.90;;;;;;5074400;28;20048;-68
2022/06/23 03:33:21;;;;;;;11.65;8.85;;;12.50;99.90;;;;;;5076514;28;20365;-67
2022/06/23 03:36:13;;;;;;;10.68;8.50;;;12.50;99.90;;;;;;5093548;28;20181;-67
2022/06/23 03:41:48;;;;;;;10.88;8.50;;;12.50;99.90;;;;;;5075808;28;20117;-68
2022/06/23 03:44:16;;;;;;;11.27;8.43;;;12.50;99.90;;;;;;5073924;28;20498;-65
2022/06/23 03:47:03;;;;;;;11.23;8.88;;;12.50;99.90;;;;;;5073015;28;20127;-66
2022/06/23 03:49:52;;;;;;;11.63;9.18;;;12.50;99.90;;;;;;5074407;28;20565;-67
2022/06/23 03:52:40;;;;;;;11.73;8.55;;;12.50;99.90;;;;;;5072801;28;20052;-66
2022/06/23 03:55:38;;;;;;;12.77;9.00;;;12.50;99.90;;;;;;5071522;28;20052;-67
2022/06/23 03:58:20;;;;;;;11.85;9.10;;;12.50;99.90;;;;;;5086285;28;20502;-66
2022/06/23 04:01:17;;;;;;;11.50;8.65;;;12.60;99.90;;;;;;5094479;28;20395;-66
2022/06/23 04:03:45;;;;;;;11.57;9.02;;;12.50;99.90;;;;;;5076168;28;20057;-66
2022/06/23 04:06:22;;;;;;;11.70;8.73;;;12.60;99.90;;;;;;5077985;28;20056;-66
2022/06/23 04:09:03;;;;;;;13.00;8.93;;;12.50;99.90;;;;;;5080432;28;20052;-67
2022/06/23 04:11:45;;;;;;;10.70;8.27;;;12.60;99.90;;;;;;5072829;28;20496;-67
2022/06/23 04:14:29;;;;;;;10.35;8.77;;;12.60;99.90;;;;;;5087991;28;20123;-66
2022/06/23 04:17:24;;;;;;;11.25;9.55;;;12.60;99.90;;;;;;5093411;28;20059;-66
2022/06/23 04:19:58;;;;;;;11.43;8.90;;;12.70;99.90;;;;;;5084734;28;20052;-66
2022/06/23 04:22:26;;;;;;;10.65;8.57;;;12.70;99.90;;;;;;5093087;28;20048;-66
2022/06/23 04:24:56;;;;;;;9.88;8.45;;;12.80;99.90;;;;;;5093093;28;20373;-68
2022/06/23 04:27:48;;;;;;;11.40;8.82;;;12.80;99.90;;;;;;5091774;28;20056;-67
2022/06/23 04:30:20;;;;;;;12.43;9.10;;;12.90;99.90;;;;;;5092665;28;20060;-68
2022/06/23 04:32:49;;;;;;;10.38;8.65;;;12.90;99.90;;;;;;5083137;28;20310;-67
2022/06/23 04:35:17;;;;;;;12.27;8.90;;;13.00;99.90;;;;;;5080307;28;20177;-68
2022/06/23 04:37:48;;;;;;;10.75;8.48;;;13.00;99.90;;;;;;5076969;28;20049;-66
2022/06/23 04:40:21;;;;;;;13.55;9.50;;;13.10;99.90;;;;;;5086012;28;20259;-67
2022/06/23 04:42:58;;;;;;;11.38;9.25;;;13.10;99.90;;;;;;5053028;28;20473;-67
2022/06/23 04:45:50;;;;;;;10.63;9.32;;;13.20;99.90;;;;;;5070271;28;20515;-66
2022/06/23 04:48:56;;;;;;;13.20;9.10;;;13.30;99.90;;;;;;5083251;28;20173;-66
2022/06/23 04:51:45;;;;;;;12.52;9.30;;;13.10;99.90;;;;;;5091520;28;20048;-67
2022/06/23 04:54:16;;;;;;;13.50;9.75;;;13.50;99.90;;;;;;5092066;28;20052;-68
2022/06/23 04:56:57;;;;;;;10.55;8.85;;;13.60;99.90;;;;;;5086276;28;20044;-66
2022/06/23 04:59:44;;;;;;;11.45;8.88;;;13.60;99.90;;;;;;5052934;28;20064;-67
2022/06/23 05:02:15;;;;;;;10.57;9.00;;;13.70;99.90;;;;;;5063962;28;20052;-67
2022/06/23 05:04:45;;;;;;;11.52;8.90;;;13.80;99.90;;;;;;5075189;28;20568;-68
2022/06/23 05:07:44;;;;;;;12.20;9.05;;;13.90;99.90;;;;;;5071438;28;20500;-69
2022/06/23 05:10:33;;;;;;;10.60;8.80;;;14.00;99.90;;;;;;5049423;28;20051;-67
2022/06/23 05:13:06;;;;;;;10.65;8.20;;;14.10;99.90;;;;;;5058102;28;20045;-68
2022/06/23 05:15:41;;;;;;;10.27;9.07;;;14.20;99.90;;;;;;5063960;28;20459;-67
2022/06/23 05:18:14;;;;;;;9.48;8.35;;;14.30;99.90;;;;;;5062809;28;20131;-69
2022/06/23 05:20:46;;;;;;;10.85;9.02;;;14.30;99.90;;;;;;5052701;28;20120;-69
2022/06/23 05:23:21;;;;;;;10.85;9.75;;;14.60;99.90;;;;;;5063956;28;20040;-69
2022/06/23 05:25:49;;;;;;;10.30;9.20;;;14.70;99.90;;;;;;5064581;28;20052;-67
2022/06/23 05:28:21;;;;;;;10.43;8.57;;;14.80;99.90;;;;;;5063377;28;20459;-69
2022/06/23 05:30:57;;;;;;;11.80;8.75;;;15.20;99.90;;;;;;5072124;28;20055;-69
2022/06/23 05:33:27;;;;;;;8.98;7.55;;;16.30;99.90;;;;;;5071228;28;20139;-69
2022/06/23 05:36:05;;;;;;;10.35;8.32;;;17.70;99.90;;;;;;5071707;28;20044;-69
2022/06/23 05:38:39;;;;;;;9.85;8.27;;;19.00;99.90;;;;;;5073241;28;20105;-70
2022/06/23 05:41:26;;;;;;;9.02;8.13;;;20.00;99.90;;;;;;5091238;28;20056;-69
2022/06/23 05:43:54;;;;;;;9.75;7.57;;;20.80;99.90;;;;;;5090367;28;20396;-68
2022/06/23 05:46:23;;;;;;;9.48;7.32;;;21.30;99.90;;;;;;5086883;28;20040;-70
2022/06/23 05:49:11;;;;;;;9.82;7.20;;;21.80;99.90;;;;;;5088456;28;20056;-69
2022/06/23 05:51:54;;;;;;;7.68;6.97;;;22.30;99.90;;;;;;5072699;28;20078;-68
2022/06/23 05:54:49;;;;;;;7.53;6.82;;;22.60;99.90;;;;;;5071359;28;20052;-69
2022/06/23 05:57:27;;;;;;;6.85;6.25;;;22.80;99.90;;;;;;5072729;28;20052;-68
2022/06/23 06:00:20;;;;;;;7.65;6.63;;;23.20;99.90;;;;;;5071043;28;20059;-65
2022/06/23 06:03:09;;;;;;;9.38;6.85;;;23.50;99.90;;;;;;5067870;28;20053;-67
2022/06/23 06:05:37;;;;;;;8.45;6.45;;;23.60;99.90;;;;;;5069855;28;20110;-66
2022/06/23 06:08:12;;;;;;;8.35;6.30;;;23.70;99.90;;;;;;5071529;28;20500;-68
2022/06/23 06:10:38;;;;;;;7.60;6.80;;;24.00;99.90;;;;;;5072702;28;20067;-67
2022/06/23 06:13:18;;;;;;;7.47;6.78;;;24.20;99.90;;;;;;5071796;28;20110;-66
2022/06/23 06:15:48;;;;;;;7.63;6.90;;;24.40;99.90;;;;;;5071594;28;20049;-65
2022/06/23 06:18:18;;;;;;;8.32;6.32;;;24.60;99.90;;;;;;5086523;28;20051;-66
2022/06/23 06:20:43;;;;;;;7.50;6.25;;;24.50;99.90;;;;;;5091497;28;20063;-65
2022/06/23 06:23:19;;;;;;;8.02;5.88;;;24.50;99.90;;;;;;5074615;28;20044;-67
2022/06/23 06:25:48;;;;;;;8.13;6.30;;;24.60;99.90;;;;;;5075825;28;20044;-66
2022/06/23 06:28:28;;;;;;;8.15;6.18;;;24.90;99.90;;;;;;5075492;28;20045;-66
2022/06/23 06:31:25;;;;;;;7.47;6.72;;;24.90;99.70;;;;;;5075257;28;20048;-65
2022/06/23 06:34:22;;;;;;;6.43;5.80;;;25.00;97.50;;;;;;5057688;28;20178;-68
2022/06/23 06:36:51;;;;;;;7.57;6.60;;;25.20;99.90;;;;;;5073280;28;20431;-66
2022/06/23 06:39:27;;;;;;;7.45;6.75;;;25.20;99.90;;;;;;5075658;28;20048;-66
2022/06/23 06:42:04;;;;;;;8.95;6.85;;;25.00;99.90;;;;;;5090977;28;20158;-65
2022/06/23 06:44:32;;;;;;;8.80;6.63;;;24.40;99.90;;;;;;5083899;28;20075;-66
2022/06/23 06:46:59;;;;;;;6.70;6.10;;;23.60;99.90;;;;;;5073998;28;20386;-66
2022/06/23 06:49:28;;;;;;;7.18;6.22;;;23.00;99.90;;;;;;5074305;28;20063;-66
2022/06/23 06:51:56;;;;;;;6.80;6.07;;;22.40;99.90;;;;;;5075012;28;20059;-67
2022/06/23 06:54:33;;;;;;;7.00;6.15;;;22.00;99.90;;;;;;5075704;28;20148;-66
2022/06/23 06:57:04;;;;;;;7.28;6.22;;;21.60;99.90;;;;;;5074650;28;20331;-67
2022/06/23 06:59:38;;;;;;;7.22;5.93;;;21.40;99.90;;;;;;5074998;28;20071;-66
2022/06/23 07:02:13;;;;;;;8.57;6.00;;;21.30;99.90;;;;;;5074019;28;20058;-67
2022/06/23 07:04:47;;;;;;;10.43;5.63;;;21.10;99.90;;;;;;5075218;28;20126;-66
2022/06/23 07:07:20;;;;;;;6.90;5.85;;;21.20;99.90;;;;;;5075431;28;20495;-66
2022/06/23 07:09:54;;;;;;;6.60;5.47;;;21.20;99.90;;;;;;5073600;28;20111;-65
2022/06/23 07:12:43;;;;;;;7.45;6.10;;;21.10;99.90;;;;;;5073791;28;20500;-66
2022/06/23 07:15:20;;;;;;;6.80;6.15;;;21.10;99.90;;;;;;5074238;28;20083;-65
2022/06/23 07:18:14;;;;;;;9.70;5.82;;;21.10;99.90;;;;;;5073221;28;20052;-67
2022/06/23 07:20:52;;;;;;;7.93;5.45;;;21.20;99.90;;;;;;5071687;28;20458;-66
2022/06/23 07:23:23;;;;;;;10.00;6.43;;;21.40;99.90;;;;;;5073538;28;20056;-65
2022/06/23 07:25:54;;;;;;;8.20;5.60;;;21.50;99.90;;;;;;5073270;28;20052;-66
2022/06/23 07:28:34;;;;;;;11.07;5.60;;;21.60;99.90;;;;;;5074655;28;20461;-67
2022/06/23 07:31:11;;;;;;;5.93;5.10;;;21.70;99.90;;;;;;5073247;28;20058;-66
2022/06/23 07:33:49;;;;;;;6.80;5.60;;;21.70;99.90;;;;;;5073221;28;20087;-66
2022/06/23 07:36:23;;;;;;;8.82;5.15;;;21.80;99.90;;;;;;5073159;28;20056;-65
2022/06/23 07:38:52;;;;;;;6.50;5.40;;;21.90;99.90;;;;;;5074622;28;20049;-67
2022/06/23 07:41:28;;;;;;;5.68;5.00;;;21.90;99.90;;;;;;5074275;28;20511;-67
2022/06/23 07:44:04;;;;;;;5.68;4.40;;;22.20;99.90;;;;;;5074234;28;20437;-66
2022/06/23 07:46:31;;;;;;;6.22;5.60;;;22.40;99.90;;;;;;5072656;28;20151;-66
2022/06/23 07:48:57;;;;;;;6.60;5.30;;;22.50;99.90;;;;;;5074097;28;20445;-67
2022/06/23 07:51:23;;;;;;;7.60;5.20;;;22.70;99.90;;;;;;5074443;28;20084;-65
2022/06/23 07:53:52;;;;;;;6.05;5.00;;;22.90;99.90;;;;;;5074206;28;20087;-65
2022/06/23 07:56:20;;;;;;;5.50;4.40;;;23.00;99.90;;;;;;5089527;28;20063;-67
2022/06/23 07:58:48;;;;;;;8.23;4.30;;;23.10;99.90;;;;;;5072614;28;20441;-66
2022/06/23 08:01:30;;;;;;;5.20;4.70;;;23.20;99.90;;;;;;5072170;28;20521;-67
2022/06/23 08:04:03;;;;;;;;;;;23.30;99.90;;;;;;5090152;28;20057;-67
2022/06/23 08:06:31;;;;;;;7.22;4.38;;;23.50;99.90;;;;;;5089547;28;19924;-66
2022/06/23 08:09:10;;;;;;;7.85;5.40;;;23.70;99.90;;;;;;5074003;28;20070;-66
2022/06/23 08:14:29;;;;;;;5.57;5.05;;;23.90;99.90;;;;;;5073200;28;20060;-67
2022/06/23 08:16:54;;;;;;;8.20;5.10;;;23.80;99.90;;;;;;5055072;28;20131;-66
2022/06/23 08:19:49;;;;;;;5.65;5.15;;;23.90;99.90;;;;;;5072186;28;20123;-67
2022/06/23 08:22:27;;;;;;;5.38;4.10;;;23.90;99.90;;;;;;5072892;28;20052;-67
2022/06/23 08:24:58;;;;;;;5.25;4.30;;;24.10;99.90;;;;;;5072731;28;20106;-66
2022/06/23 08:27:28;;;;;;;4.27;3.90;;;24.30;99.90;;;;;;5105421;28;20053;-66
2022/06/23 08:30:00;;;;;;;7.38;5.47;;;24.50;99.90;;;;;;5073201;28;20754;-66
2022/06/23 08:32:26;;;;;;;6.15;4.15;;;24.60;99.90;;;;;;5073156;28;20053;-66
2022/06/23 08:35:05;;;;;;;8.35;4.22;;;24.70;99.90;;;;;;5072144;28;20408;-66
2022/06/23 08:37:56;;;;;;;5.38;4.03;;;24.90;95.90;;;;;;5073321;28;20346;-66
2022/06/23 08:40:39;;;;;;;5.27;3.67;;;25.00;96.20;;;;;;5071754;28;20049;-67
2022/06/23 08:43:04;;;;;;;5.32;3.90;;;25.00;98.30;;;;;;5088080;28;20048;-67
2022/06/23 08:45:45;;;;;;;8.50;3.90;;;25.20;99.90;;;;;;5073606;28;20056;-66
2022/06/23 08:48:18;;;;;;;5.57;3.70;;;25.40;99.90;;;;;;5072942;28;20088;-66
2022/06/23 08:50:51;;;;;;;4.22;3.50;;;25.40;98.50;;;;;;5073037;28;20052;-66
2022/06/23 08:53:37;;;;;;;4.30;3.53;;;25.40;97.10;;;;;;5072364;28;20048;-67
2022/06/23 08:56:11;;;;;;;7.95;3.75;;;25.60;96.70;;;;;;5071571;28;20060;-67
2022/06/23 08:58:49;;;;;;;4.72;3.47;;;25.50;90.40;;;;;;5072811;28;20431;-67
2022/06/23 09:01:30;;;;;;;7.15;3.35;;;25.60;85.70;;;;;;5073039;28;20056;-66
2022/06/23 09:04:17;;;;;;;3.55;3.20;;;25.70;77.80;;;;;;5072859;28;20155;-67
2022/06/23 09:07:05;;;;;;;4.00;3.10;;;25.70;90.80;;;;;;5051587;28;20138;-66
2022/06/23 09:09:34;;;;;;;4.53;3.30;;;25.70;86.00;;;;;;5062524;28;20060;-66
2022/06/23 09:12:14;;;;;;;4.50;3.28;;;25.70;79.50;;;;;;5052432;28;20088;-66
2022/06/23 09:14:49;;;;;;;5.10;2.83;;;25.70;78.80;;;;;;5051286;28;20098;-66
2022/06/23 09:17:20;;;;;;;6.05;3.10;;;25.90;81.70;;;;;;5051006;28;20057;-67
2022/06/23 09:20:11;;;;;;;4.38;3.08;;;26.10;87.60;;;;;;5058917;28;20120;-66
2022/06/23 09:22:49;;;;;;;3.92;2.90;;;26.20;90.00;;;;;;5071626;28;20361;-66
2022/06/23 09:25:47;;;;;;;4.55;3.20;;;26.30;81.80;;;;;;5071381;28;20053;-65
2022/06/23 09:28:23;;;;;;;5.15;3.60;;;26.40;75.00;;;;;;5072684;28;20053;-68
2022/06/23 09:31:20;;;;;;;5.57;3.03;;;26.60;71.60;;;;;;5071405;28;20175;-67
2022/06/23 09:34:12;;;;;;;6.25;3.33;;;26.70;69.00;;;;;;5070605;28;20063;-68
2022/06/23 09:37:06;;;;;;;5.00;3.10;;;26.80;66.80;;;;;;5071143;28;20049;-67
2022/06/23 09:40:08;;;;;;;4.88;2.80;;;26.90;67.70;;;;;;5072805;28;20088;-67
2022/06/23 09:43:12;;;;;;;3.42;3.13;;;26.90;66.50;;;;;;5072067;28;20058;-68
2022/06/23 09:46:16;;;;;;;5.60;3.22;;;26.90;64.70;;;;;;5071777;28;20068;-67
2022/06/23 09:49:06;;;;;;;4.25;3.20;;;27.00;65.60;;;;;;5070670;28;20056;-67
2022/06/23 09:51:58;;;;;;;6.20;3.00;;;27.10;63.60;;;;;;5053670;28;20057;-67
2022/06/23 09:54:43;;;;;;;;;;;27.20;66.40;;;;;;5065794;28;20374;-67
2022/06/23 09:57:18;;;;;;;4.03;3.10;;;27.40;63.10;;;;;;5074805;28;19920;-66
2022/06/23 10:00:11;;;;;;;4.70;2.80;;;27.40;63.70;;;;;;5057724;28;20066;-66
2022/06/23 10:03:10;;;;;;;4.72;3.78;;;27.50;63.60;;;;;;5070138;28;20056;-66
2022/06/23 10:06:29;;;;;;;4.78;3.58;;;27.50;62.20;;;;;;5076087;28;20101;-66
2022/06/23 10:08:54;;;;;;;5.80;3.20;;;27.60;63.40;;;;;;5058427;28;20052;-66
2022/06/23 10:11:42;;;;;;;4.18;3.53;;;27.80;63.90;;;;;;5076041;28;20059;-67
2022/06/23 10:14:33;;;;;;;6.72;4.25;;;27.90;60.60;;;;;;5075595;28;20059;-67
2022/06/23 10:17:22;;;;;;;4.72;4.03;;;28.00;60.70;;;;;;5075084;28;20127;-66
2022/06/23 10:19:51;;;;;;;6.18;3.63;;;28.00;61.10;;;;;;5074380;28;20068;-68
2022/06/23 10:22:28;;;;;;;4.20;3.80;;;28.00;60.90;;;;;;5075711;28;20064;-68
2022/06/23 10:25:16;;;;;;;7.03;3.50;;;28.10;57.70;;;;;;5074196;28;20052;-66
2022/06/23 10:28:14;;;;;;;3.92;3.03;;;28.10;57.30;;;;;;5076038;28;20064;-67
2022/06/23 10:31:18;;;;;;;3.63;2.85;;;28.20;59.10;;;;;;5075773;28;20099;-68
2022/06/23 10:33:59;;;;;;;6.30;2.97;;;28.40;58.60;;;;;;5076430;28;20063;-67
2022/06/23 10:37:02;;;;;;;9.20;3.67;;;28.60;59.50;;;;;;5084282;28;20052;-67
2022/06/23 10:39:56;;;;;;;4.30;3.20;;;28.70;57.00;;;;;;5075432;28;20131;-66
2022/06/23 10:42:43;;;;;;;5.65;3.55;;;28.60;55.40;;;;;;5074748;28;20431;-66
2022/06/23 10:45:50;;;;;;;6.90;4.07;;;28.60;57.00;;;;;;5070051;28;20477;-66
2022/06/23 10:48:44;;;;;;;4.78;3.65;;;28.60;55.50;;;;;;5073159;28;20056;-66
2022/06/23 10:51:18;;;;;;;3.47;2.85;;;28.70;56.40;;;;;;5070702;28;20202;-65
2022/06/23 10:54:22;;;;;;;3.42;2.65;;;28.80;56.00;;;;;;5072591;28;20126;-66
2022/06/23 10:56:57;;;;;;;3.85;3.17;;;28.90;55.70;;;;;;5086671;28;20056;-67
2022/06/23 10:59:39;;;;;;;6.95;3.00;;;28.90;56.30;;;;;;5085043;28;20083;-66
2022/06/23 11:02:33;;;;;;;4.30;3.33;;;29.10;54.40;;;;;;5078862;28;20044;-67
2022/06/23 11:05:12;;;;;;;4.18;3.00;;;29.00;54.60;;;;;;5073459;28;20052;-66
2022/06/23 11:08:00;;;;;;;4.45;3.13;;;29.10;54.90;;;;;;5072759;28;20440;-66
2022/06/23 11:10:37;;;;;;;3.90;2.78;;;29.00;53.70;;;;;;5073986;28;20098;-66
2022/06/23 11:13:17;;;;;;;3.95;2.50;;;29.00;53.90;;;;;;5072707;28;20090;-66
2022/06/23 11:16:15;;;;;;;7.18;2.90;;;29.00;53.80;;;;;;5074812;28;20055;-66
2022/06/23 11:19:03;;;;;;;3.53;2.75;;;29.00;53.00;;;;;;5073563;28;20052;-69
2022/06/23 11:21:59;;;;;;;7.55;2.75;;;29.10;53.40;;;;;;5072476;28;20695;-67
2022/06/23 11:25:01;;;;;;;4.50;2.70;;;29.10;52.00;;;;;;5072889;28;20052;-66
2022/06/23 11:27:54;;;;;;;4.65;2.53;;;29.20;54.60;;;;;;5064491;28;20055;-67
2022/06/23 11:30:41;;;;;;;3.53;2.60;;;29.30;52.70;;;;;;5074717;28;20098;-67
2022/06/23 11:33:24;;;;;;;5.22;2.80;;;29.30;52.70;;;;;;5073837;28;20059;-67
2022/06/23 11:36:24;;;;;;;4.45;2.60;;;29.40;52.90;;;;;;5072356;28;20151;-66
2022/06/23 11:39:13;;;;;;;3.97;2.72;;;29.50;52.80;;;;;;5080049;28;20514;-67
2022/06/23 11:41:53;;;;;;;3.50;2.63;;;29.50;52.80;;;;;;5093419;28;20067;-65
2022/06/23 11:44:42;;;;;;;3.95;2.38;;;29.60;53.00;;;;;;5089372;28;20119;-66
2022/06/23 11:47:35;;;;;;;2.90;2.38;;;29.70;52.50;;;;;;5092122;28;20084;-66
2022/06/23 11:50:19;;;;;;;6.60;2.53;;;29.80;53.60;;;;;;5079538;28;20064;-66
2022/06/23 11:53:17;;;;;;;3.33;2.42;;;29.80;52.30;;;;;;5094326;28;20051;-67
2022/06/23 11:55:48;;;;;;;3.05;2.45;;;29.90;52.10;;;;;;5093017;28;20048;-66
2022/06/23 11:58:28;;;;;;;3.50;2.25;;;30.00;51.50;;;;;;5094360;28;20150;-67
2022/06/23 12:00:59;;;;;;;3.60;2.00;;;30.00;50.90;;;;;;5092813;28;20092;-67
2022/06/23 12:03:43;;;;;;;;;;;30.10;50.90;;;;;;5084598;28;20473;-66
2022/06/23 12:06:36;;;;;;;2.45;2.15;;;30.10;49.60;;;;;;5073235;28;19943;-67
2022/06/23 12:09:28;;;;;;;4.90;2.20;;;30.30;51.50;;;;;;5073446;28;20126;-67
2022/06/23 12:11:56;;;;;;;2.58;2.10;;;30.30;50.40;;;;;;5072341;28;20060;-67
2022/06/23 12:14:23;;;;;;;4.00;2.28;;;30.30;51.40;;;;;;5055785;28;20052;-67
2022/06/23 12:17:18;;;;;;;3.22;2.03;;;30.40;50.20;;;;;;5104902;28;20485;-68
2022/06/23 12:20:02;;;;;;;5.00;2.40;;;30.40;51.20;;;;;;5071728;28;20045;-66
2022/06/23 12:22:44;;;;;;;3.67;2.20;;;30.40;50.00;;;;;;5072446;28;20064;-68
2022/06/23 12:25:43;;;;;;;5.28;2.00;;;30.40;50.20;;;;;;5073469;28;20154;-68
2022/06/23 12:28:12;;;;;;;2.50;2.15;;;30.50;50.30;;;;;;5073426;28;20060;-66
2022/06/23 12:31:02;;;;;;;2.47;2.28;;;30.60;51.00;;;;;;5073525;28;20067;-67
2022/06/23 12:34:00;;;;;;;5.65;2.50;;;30.60;49.10;;;;;;5071737;28;20424;-67
2022/06/23 12:36:36;;;;;;;3.45;1.92;;;30.70;48.70;;;;;;5071895;28;20053;-67
2022/06/23 12:39:08;;;;;;;3.42;2.17;;;30.80;48.50;;;;;;5089087;28;20347;-67
2022/06/23 12:41:44;;;;;;;3.17;1.95;;;30.80;48.40;;;;;;5071756;28;20056;-67
2022/06/23 12:44:22;;;;;;;2.40;2.03;;;30.80;48.30;;;;;;5073858;28;20099;-68
2022/06/23 12:46:53;;;;;;;6.05;2.40;;;30.90;48.70;;;;;;5071802;28;20063;-68
2022/06/23 12:49:53;;;;;;;4.00;2.33;;;30.90;49.00;;;;;;5071313;28;20407;-67
2022/06/23 12:52:46;;;;;;;6.57;2.25;;;31.00;48.60;;;;;;5072376;28;20105;-68
2022/06/23 12:55:55;;;;;;;2.80;2.30;;;31.10;48.10;;;;;;5071394;28;20063;-67
2022/06/23 12:58:28;;;;;;;3.90;2.30;;;31.20;49.10;;;;;;5059829;28;20056;-68
2022/06/23 13:01:13;;;;;;;3.10;2.08;;;31.20;49.00;;;;;;5064869;28;20067;-67
2022/06/23 13:03:50;;;;;;;3.90;2.17;;;31.30;47.80;;;;;;5072169;28;20048;-67
2022/06/23 13:06:38;;;;;;;3.38;2.10;;;31.40;47.90;;;;;;5070760;28;20116;-67
2022/06/23 13:09:27;;;;;;;4.85;2.45;;;31.50;47.70;;;;;;5071593;28;20094;-67
2022/06/23 13:12:15;;;;;;;3.85;2.35;;;31.40;47.80;;;;;;5071405;28;20430;-66
2022/06/23 13:15:01;;;;;;;2.28;2.15;;;31.40;46.60;;;;;;5072882;28;20077;-68
2022/06/23 13:17:52;;;;;;;2.92;2.00;;;31.30;46.30;;;;;;5071367;28;20064;-67
2022/06/23 13:20:31;;;;;;;4.00;2.47;;;31.40;46.30;;;;;;5069672;28;20056;-68
2022/06/23 13:23:03;;;;;;;2.30;2.13;;;31.60;47.60;;;;;;5072526;28;20507;-68
2022/06/23 13:25:36;;;;;;;2.75;2.13;;;31.60;47.10;;;;;;5069461;28;20049;-68
2022/06/23 13:28:05;;;;;;;3.72;2.22;;;31.60;47.50;;;;;;5073448;28;20044;-69
2022/06/23 13:30:44;;;;;;;6.47;2.60;;;31.50;46.10;;;;;;5072068;28;20040;-67
2022/06/23 13:33:41;;;;;;;2.13;1.98;;;31.40;46.20;;;;;;5066327;28;20080;-69
2022/06/23 13:36:26;;;;;;;3.47;2.45;;;31.50;46.30;;;;;;5055974;28;20091;-68
2022/06/23 13:39:07;;;;;;;2.00;1.90;;;31.50;45.00;;;;;;5071057;28;20048;-68
2022/06/23 13:41:40;;;;;;;2.55;1.83;;;31.50;45.60;;;;;;5071645;28;20056;-67
2022/06/23 13:44:20;;;;;;;2.72;2.08;;;31.60;45.60;;;;;;5072295;28;20053;-67
2022/06/23 13:47:08;;;;;;;4.05;2.38;;;31.60;45.60;;;;;;5069034;28;20163;-68
2022/06/23 13:49:48;;;;;;;2.28;2.08;;;31.60;45.20;;;;;;5071965;28;20078;-68
2022/06/23 13:52:36;;;;;;;2.25;2.05;;;31.60;45.20;;;;;;5071504;28;20057;-67
2022/06/23 13:55:24;;;;;;;2.95;2.10;;;31.50;44.40;;;;;;5085598;28;20045;-67
2022/06/23 13:58:11;;;;;;;3.53;2.20;;;31.60;45.00;;;;;;5068767;28;20048;-67
2022/06/23 14:00:54;;;;;;;2.72;2.10;;;31.60;44.70;;;;;;5070904;28;20484;-68
2022/06/23 14:03:28;;;;;;;3.90;2.10;;;31.60;44.20;;;;;;5069369;28;20048;-67